createdAt,value
2022-11-29T00:01:43.219Z,2.90
2022-11-29T00:04:12.472Z,3.65
2022-11-29T00:06:41.073Z,3.03
2022-11-29T00:09:14.374Z,4.10
2022-11-29T00:12:01.425Z,3.50
2022-11-29T00:14:30.929Z,2.30
2022-11-29T00:17:02.483Z,2.38
2022-11-29T00:19:31.922Z,2.80
2022-11-29T00:22:00.939Z,2.50
2022-11-29T00:24:32.616Z,2.00
2022-11-29T00:27:01.751Z,2.17
2022-11-29T00:29:31.500Z,2.55
2022-11-29T00:32:00.580Z,2.05
2022-11-29T00:34:29.369Z,2.50
2022-11-29T00:36:57.766Z,2.00
2022-11-29T00:39:26.228Z,2.20
2022-11-29T00:41:56.251Z,2.33
2022-11-29T00:44:24.540Z,2.13
2022-11-29T00:46:52.769Z,2.50
2022-11-29T00:49:21.062Z,2.78
2022-11-29T00:51:49.493Z,2.53
2022-11-29T00:54:18.881Z,2.53
2022-11-29T00:56:47.142Z,2.30
2022-11-29T00:59:17.005Z,2.17
2022-11-29T01:01:45.450Z,2.20
2022-11-29T01:04:13.918Z,2.28
2022-11-29T01:06:42.332Z,2.60
2022-11-29T01:09:10.864Z,2.30
2022-11-29T01:11:40.308Z,2.50
2022-11-29T01:14:08.733Z,2.58
2022-11-29T01:16:38.470Z,2.40
2022-11-29T01:19:08.027Z,2.60
2022-11-29T01:21:36.480Z,2.97
2022-11-29T01:26:05.142Z,2.50
2022-11-29T01:28:33.742Z,3.45
2022-11-29T01:31:08.499Z,2.95
2022-11-29T01:33:38.123Z,4.95
2022-11-29T01:36:08.422Z,4.78
2022-11-29T01:38:37.700Z,3.90
2022-11-29T01:41:09.924Z,2.92
2022-11-29T01:43:57.950Z,3.55
2022-11-29T01:46:27.088Z,3.50
2022-11-29T01:49:00.961Z,2.95
2022-11-29T01:51:30.446Z,3.00
2022-11-29T01:53:59.564Z,3.50
2022-11-29T01:56:31.337Z,3.33
2022-11-29T01:58:59.650Z,3.25
2022-11-29T02:01:28.194Z,3.47
2022-11-29T02:03:56.929Z,3.38
2022-11-29T02:06:26.431Z,4.15
2022-11-29T02:08:56.520Z,3.38
2022-11-29T02:12:07.594Z,4.13
2022-11-29T02:14:54.238Z,4.13
2022-11-29T02:17:31.896Z,3.70
2022-11-29T02:20:43.890Z,4.15
2022-11-29T02:23:40.752Z,3.38
2022-11-29T02:26:23.707Z,4.07
2022-11-29T02:29:58.538Z,3.63
2022-11-29T02:33:33.443Z,3.95
2022-11-29T02:36:34.424Z,3.28
2022-11-29T02:39:48.102Z,3.40
2022-11-29T02:42:56.099Z,3.75
2022-11-29T02:45:39.524Z,3.30
2022-11-29T02:48:42.529Z,3.38
2022-11-29T02:51:19.016Z,3.10
2022-11-29T02:53:58.386Z,3.70
2022-11-29T02:56:35.542Z,3.30
2022-11-29T02:59:12.902Z,3.10
2022-11-29T03:01:50.685Z,3.33
2022-11-29T03:04:30.016Z,3.30
2022-11-29T03:07:06.219Z,3.17
2022-11-29T03:09:41.186Z,3.80
2022-11-29T03:12:20.379Z,2.58
2022-11-29T03:15:00.649Z,3.53
2022-11-29T03:17:39.008Z,3.22
2022-11-29T03:20:29.958Z,3.10
2022-11-29T03:23:16.157Z,3.20
2022-11-29T03:25:50.308Z,3.30
2022-11-29T03:28:23.465Z,3.65
2022-11-29T03:31:00.375Z,3.35
2022-11-29T03:33:40.378Z,3.20
2022-11-29T03:36:16.259Z,2.88
2022-11-29T03:38:47.116Z,3.63
2022-11-29T03:41:25.488Z,3.78
2022-11-29T03:44:08.304Z,3.88
2022-11-29T03:46:43.709Z,3.40
2022-11-29T03:49:19.751Z,3.85
2022-11-29T03:52:02.289Z,3.65
2022-11-29T03:54:41.675Z,4.40
2022-11-29T03:57:10.847Z,3.50
2022-11-29T03:59:53.635Z,3.20
2022-11-29T04:03:06.554Z,3.13
2022-11-29T04:06:05.450Z,3.03
2022-11-29T04:09:25.723Z,3.15
2022-11-29T04:12:46.391Z,3.20
2022-11-29T04:15:56.846Z,3.20
2022-11-29T04:19:06.842Z,2.70
2022-11-29T04:22:16.864Z,2.70
2022-11-29T04:25:42.730Z,2.87
2022-11-29T04:28:39.491Z,2.67
2022-11-29T04:31:18.780Z,2.37
2022-11-29T04:34:34.005Z,2.27
2022-11-29T04:37:23.242Z,2.22
2022-11-29T04:40:05.487Z,2.42
2022-11-29T04:43:11.577Z,2.67
2022-11-29T04:46:25.662Z,2.10
2022-11-29T04:49:21.793Z,2.40
2022-11-29T04:52:11.888Z,2.50
2022-11-29T04:54:48.504Z,2.57
2022-11-29T04:57:28.798Z,2.43
2022-11-29T05:00:09.797Z,2.33
2022-11-29T05:02:48.137Z,2.47
2022-11-29T05:05:31.123Z,1.93
2022-11-29T05:08:21.240Z,2.47
2022-11-29T05:11:01.213Z,2.47
2022-11-29T05:13:40.368Z,2.37
2022-11-29T05:16:21.353Z,2.55
2022-11-29T05:19:29.575Z,2.53
2022-11-29T05:22:11.644Z,2.50
2022-11-29T05:24:54.770Z,2.40
2022-11-29T05:27:38.051Z,2.75
2022-11-29T05:30:12.934Z,2.00
2022-11-29T05:32:56.810Z,2.50
2022-11-29T05:35:54.604Z,2.10
2022-11-29T05:38:48.668Z,2.37
2022-11-29T05:41:49.449Z,2.47
2022-11-29T05:44:25.929Z,2.10
2022-11-29T05:46:58.344Z,2.10
2022-11-29T05:49:40.235Z,2.10
2022-11-29T05:52:24.455Z,2.35
2022-11-29T05:55:11.707Z,2.10
2022-11-29T05:57:49.597Z,2.38
2022-11-29T06:00:20.520Z,2.47
2022-11-29T06:02:59.640Z,2.28
2022-11-29T06:05:37.962Z,2.33
2022-11-29T06:08:12.463Z,2.50
2022-11-29T06:10:55.285Z,2.30
2022-11-29T06:13:39.694Z,2.40
2022-11-29T06:16:46.894Z,2.58
2022-11-29T06:20:09.086Z,2.90
2022-11-29T06:23:23.801Z,2.67
2022-11-29T06:26:13.994Z,2.30
2022-11-29T06:28:57.642Z,2.40
2022-11-29T06:31:31.107Z,3.05
2022-11-29T06:34:08.569Z,2.90
2022-11-29T06:36:43.867Z,2.70
2022-11-29T06:39:14.637Z,3.07
2022-11-29T06:41:42.969Z,3.60
2022-11-29T06:44:12.243Z,3.10
2022-11-29T06:46:47.606Z,3.38
2022-11-29T06:49:24.094Z,3.40
2022-11-29T06:52:04.906Z,3.45
2022-11-29T06:54:54.993Z,3.67
2022-11-29T06:57:31.546Z,3.58
2022-11-29T07:00:09.013Z,3.13
2022-11-29T07:02:57.328Z,2.90
2022-11-29T07:05:29.966Z,3.17
2022-11-29T07:08:02.351Z,3.03
2022-11-29T07:10:36.376Z,3.17
2022-11-29T07:13:05.711Z,3.13
2022-11-29T07:15:34.815Z,2.70
2022-11-29T07:18:29.817Z,3.17
2022-11-29T07:21:10.808Z,3.10
2022-11-29T07:23:49.713Z,3.22
2022-11-29T07:26:26.956Z,2.80
2022-11-29T07:29:09.042Z,3.28
2022-11-29T07:31:53.186Z,3.47
2022-11-29T07:34:32.522Z,3.85
2022-11-29T07:37:08.404Z,4.13
2022-11-29T07:39:49.738Z,3.47
2022-11-29T07:42:27.976Z,3.97
2022-11-29T07:45:05.484Z,3.88
2022-11-29T07:47:35.897Z,3.80
2022-11-29T07:50:06.485Z,4.30
2022-11-29T07:52:36.660Z,3.15
2022-11-29T07:55:06.447Z,3.38
2022-11-29T07:57:36.954Z,3.50
2022-11-29T08:00:07.311Z,3.20
2022-11-29T08:02:45.405Z,3.67
2022-11-29T08:05:14.339Z,3.28
2022-11-29T08:07:43.648Z,3.55
2022-11-29T08:10:15.432Z,3.72
2022-11-29T08:12:48.239Z,5.20
2022-11-29T08:15:17.772Z,5.72
2022-11-29T08:17:46.176Z,4.60
2022-11-29T08:20:17.688Z,5.05
2022-11-29T08:22:46.057Z,4.57
2022-11-29T08:25:14.374Z,3.35
2022-11-29T08:27:44.120Z,3.55
2022-11-29T08:30:13.020Z,4.97
2022-11-29T08:32:41.287Z,4.78
2022-11-29T08:35:10.552Z,3.78
2022-11-29T08:37:38.871Z,3.67
2022-11-29T08:40:09.316Z,4.90
2022-11-29T08:42:37.672Z,3.78
2022-11-29T08:45:09.761Z,3.60
2022-11-29T08:47:38.482Z,3.17
2022-11-29T08:50:12.190Z,3.50
2022-11-29T08:53:00.535Z,3.80
2022-11-29T08:55:33.143Z,3.90
2022-11-29T08:58:07.374Z,3.78
2022-11-29T09:00:39.550Z,4.10
2022-11-29T09:03:26.496Z,3.38
2022-11-29T09:05:55.308Z,3.70
2022-11-29T09:08:23.646Z,3.58
2022-11-29T09:10:53.317Z,3.67
2022-11-29T09:13:21.626Z,4.57
2022-11-29T09:15:51.300Z,3.40
2022-11-29T09:18:19.642Z,3.20
2022-11-29T09:20:47.935Z,4.30
2022-11-29T09:23:16.237Z,3.65
2022-11-29T09:25:50.052Z,3.85
2022-11-29T09:28:18.505Z,3.20
2022-11-29T09:30:46.853Z,3.72
2022-11-29T09:33:17.418Z,6.80
2022-11-29T09:35:46.064Z,12.10
2022-11-29T09:38:15.819Z,3.85
2022-11-29T09:40:51.454Z,4.15
2022-11-29T09:43:28.571Z,4.10
2022-11-29T09:46:04.408Z,3.63
2022-11-29T09:49:00.497Z,3.78
2022-11-29T09:51:34.140Z,4.07
2022-11-29T09:54:18.749Z,4.07
2022-11-29T09:56:50.919Z,3.75
2022-11-29T09:59:25.897Z,4.15
2022-11-29T10:02:00.546Z,4.28
2022-11-29T10:04:37.268Z,3.70
2022-11-29T10:07:12.520Z,4.05
2022-11-29T10:09:47.178Z,3.35
2022-11-29T10:12:23.420Z,4.35
2022-11-29T10:14:56.042Z,4.28
2022-11-29T10:17:36.087Z,4.18
2022-11-29T10:20:14.261Z,4.80
2022-11-29T10:22:53.423Z,4.50
2022-11-29T10:25:27.031Z,3.45
2022-11-29T10:27:55.982Z,3.90
2022-11-29T10:30:24.414Z,3.70
2022-11-29T10:32:57.863Z,4.38
2022-11-29T10:35:29.432Z,3.58
2022-11-29T10:40:58.935Z,3.80
2022-11-29T10:43:27.879Z,3.20
2022-11-29T10:45:57.084Z,3.35
2022-11-29T10:48:31.876Z,3.30
2022-11-29T10:51:03.617Z,5.40
2022-11-29T10:53:37.501Z,7.30
2022-11-29T10:56:10.552Z,4.10
2022-11-29T10:58:57.288Z,3.42
2022-11-29T11:01:29.048Z,3.28
2022-11-29T11:03:59.747Z,3.00
2022-11-29T11:06:45.784Z,4.07
2022-11-29T11:09:21.505Z,3.42
2022-11-29T11:11:54.342Z,3.33
2022-11-29T11:14:25.116Z,2.92
2022-11-29T11:16:54.034Z,3.00
2022-11-29T11:19:29.649Z,5.00
2022-11-29T11:22:02.246Z,3.90
2022-11-29T11:24:33.210Z,3.55
2022-11-29T11:27:02.645Z,3.50
2022-11-29T11:29:37.389Z,3.65
2022-11-29T11:32:08.926Z,4.20
2022-11-29T11:34:38.990Z,3.60
2022-11-29T11:37:24.092Z,3.08
2022-11-29T11:39:55.729Z,3.20
2022-11-29T11:42:39.896Z,3.20
2022-11-29T11:45:28.812Z,3.13
2022-11-29T11:48:00.120Z,2.92
2022-11-29T11:50:33.577Z,3.40
2022-11-29T11:53:08.200Z,2.95
2022-11-29T11:55:40.924Z,3.10
2022-11-29T11:58:19.165Z,3.28
2022-11-29T12:01:07.126Z,3.00
2022-11-29T12:03:50.922Z,2.58
2022-11-29T12:06:36.566Z,2.75
2022-11-29T12:09:19.298Z,2.40
2022-11-29T12:12:00.101Z,2.83
2022-11-29T12:14:40.207Z,2.35
2022-11-29T12:17:24.233Z,2.75
2022-11-29T12:20:21.751Z,2.70
2022-11-29T12:23:14.612Z,2.60
2022-11-29T12:25:50.725Z,2.83
2022-11-29T12:28:21.883Z,2.72
2022-11-29T12:31:00.071Z,3.63
2022-11-29T12:33:40.657Z,3.55
2022-11-29T12:36:23.320Z,3.08
2022-11-29T12:39:18.287Z,3.35
2022-11-29T12:41:55.869Z,3.03
2022-11-29T12:44:41.071Z,3.58
2022-11-29T12:47:35.583Z,3.03
2022-11-29T12:50:17.788Z,3.65
2022-11-29T12:52:56.995Z,4.85
2022-11-29T12:55:31.627Z,8.02
2022-11-29T12:58:08.230Z,3.17
2022-11-29T13:00:45.086Z,2.40
2022-11-29T13:03:23.210Z,2.35
2022-11-29T13:06:04.704Z,2.42
2022-11-29T13:08:55.338Z,2.45
2022-11-29T13:11:29.029Z,3.10
2022-11-29T13:14:40.832Z,3.33
2022-11-29T13:17:01.533Z,3.25
2022-11-29T13:19:38.997Z,2.60
2022-11-29T13:22:17.923Z,2.90
2022-11-29T13:24:52.982Z,2.63
2022-11-29T13:27:27.860Z,3.00
2022-11-29T13:29:58.541Z,3.58
2022-11-29T13:32:36.252Z,2.90
2022-11-29T13:35:13.161Z,2.55
2022-11-29T13:37:53.558Z,2.88
2022-11-29T13:40:36.653Z,2.75
2022-11-29T13:43:16.097Z,2.13
2022-11-29T13:45:53.614Z,3.55
2022-11-29T13:48:37.977Z,2.83
2022-11-29T13:51:41.134Z,3.15
2022-11-29T13:54:31.215Z,2.72
2022-11-29T13:57:06.358Z,2.90
2022-11-29T13:59:44.137Z,2.33
2022-11-29T14:02:31.104Z,3.40
2022-11-29T14:04:59.892Z,3.28
2022-11-29T14:07:28.229Z,3.97
2022-11-29T14:10:00.529Z,4.18
2022-11-29T14:12:39.296Z,4.50
2022-11-29T14:15:22.913Z,7.53
2022-11-29T14:17:56.131Z,5.80
2022-11-29T14:20:59.150Z,8.25
2022-11-29T14:23:40.495Z,14.05
2022-11-29T14:26:28.825Z,5.50
2022-11-29T14:28:59.145Z,4.00
2022-11-29T14:31:55.469Z,3.88
2022-11-29T14:34:39.982Z,5.15
2022-11-29T14:37:26.180Z,4.38
2022-11-29T14:39:59.439Z,3.92
2022-11-29T14:42:29.239Z,4.90
2022-11-29T14:45:01.395Z,4.60
2022-11-29T14:47:34.439Z,4.28
2022-11-29T14:50:10.475Z,3.47
2022-11-29T14:52:41.616Z,3.78
2022-11-29T14:55:31.082Z,2.92
2022-11-29T14:58:24.477Z,3.15
2022-11-29T15:01:10.609Z,2.90
2022-11-29T15:03:48.432Z,2.17
2022-11-29T15:06:25.983Z,3.10
2022-11-29T15:09:05.761Z,2.95
2022-11-29T15:11:51.930Z,4.00
2022-11-29T15:14:30.607Z,3.40
2022-11-29T15:17:17.465Z,5.40
2022-11-29T15:20:26.311Z,4.60
2022-11-29T15:22:58.349Z,5.28
2022-11-29T15:25:31.895Z,8.23
2022-11-29T15:28:03.504Z,3.88
2022-11-29T15:30:36.123Z,3.67
2022-11-29T15:33:07.571Z,3.20
2022-11-29T15:35:37.501Z,2.90
2022-11-29T15:38:07.204Z,3.22
2022-11-29T15:40:39.558Z,4.40
2022-11-29T15:43:21.547Z,3.42
2022-11-29T15:45:51.501Z,3.70
2022-11-29T15:48:25.884Z,3.90
2022-11-29T15:51:04.151Z,3.35
2022-11-29T15:53:38.287Z,3.72
2022-11-29T15:56:15.112Z,3.60
2022-11-29T15:58:45.828Z,4.05
2022-11-29T16:01:23.632Z,3.08
2022-11-29T16:03:58.412Z,6.10
2022-11-29T16:06:33.415Z,5.03
2022-11-29T16:09:05.373Z,6.15
2022-11-29T16:11:35.232Z,5.72
2022-11-29T16:14:19.566Z,5.82
2022-11-29T16:16:52.701Z,6.28
2022-11-29T16:19:31.259Z,5.07
2022-11-29T16:22:04.286Z,4.85
2022-11-29T16:24:44.342Z,4.45
2022-11-29T16:27:18.129Z,4.70
2022-11-29T16:29:48.578Z,4.45
2022-11-29T16:32:33.990Z,4.90
2022-11-29T16:35:20.558Z,5.10
2022-11-29T16:37:50.288Z,4.70
2022-11-29T16:40:26.085Z,4.15
2022-11-29T16:43:24.075Z,4.00
2022-11-29T16:46:38.321Z,4.85
2022-11-29T16:49:36.023Z,3.47
2022-11-29T16:52:24.136Z,4.03
2022-11-29T16:54:53.055Z,3.80
2022-11-29T16:57:23.361Z,4.45
2022-11-29T16:59:52.309Z,3.95
2022-11-29T17:02:20.741Z,4.05
2022-11-29T17:04:49.230Z,4.45
2022-11-29T17:07:24.677Z,6.10
2022-11-29T17:09:53.729Z,5.20
2022-11-29T17:12:23.384Z,5.10
2022-11-29T17:14:51.812Z,5.40
2022-11-29T17:17:38.855Z,12.60
2022-11-29T17:20:15.791Z,7.38
2022-11-29T17:23:02.437Z,7.18
2022-11-29T17:25:31.877Z,7.50
2022-11-29T17:28:01.638Z,6.88
2022-11-29T17:30:31.816Z,5.95
2022-11-29T17:33:00.142Z,5.75
2022-11-29T17:35:28.546Z,6.25
2022-11-29T17:37:57.003Z,7.07
2022-11-29T17:40:25.407Z,7.40
2022-11-29T17:42:54.549Z,7.30
2022-11-29T17:45:24.208Z,6.25
2022-11-29T17:47:52.884Z,6.93
2022-11-29T17:50:21.249Z,9.15
2022-11-29T17:52:49.508Z,14.68
2022-11-29T17:55:20.678Z,8.63
2022-11-29T17:57:50.348Z,6.90
2022-11-29T18:00:20.596Z,7.18
2022-11-29T18:02:50.499Z,7.03
2022-11-29T18:05:18.788Z,7.40
2022-11-29T18:07:58.929Z,6.93
2022-11-29T18:10:28.958Z,6.40
2022-11-29T18:12:58.438Z,6.50
2022-11-29T18:15:26.776Z,6.85
2022-11-29T18:17:56.501Z,7.15
2022-11-29T18:20:24.814Z,6.85
2022-11-29T18:22:53.336Z,8.43
2022-11-29T18:25:39.131Z,7.57
2022-11-29T18:28:11.268Z,8.05
2022-11-29T18:30:39.805Z,6.60
2022-11-29T18:33:09.709Z,7.35
2022-11-29T18:35:38.024Z,6.93
2022-11-29T18:38:15.374Z,6.93
2022-11-29T18:40:45.766Z,7.30
2022-11-29T18:43:17.519Z,7.90
2022-11-29T18:45:46.007Z,7.10
2022-11-29T18:48:17.108Z,7.95
2022-11-29T18:50:45.511Z,7.78
2022-11-29T18:53:14.864Z,10.70
2022-11-29T18:55:43.150Z,7.75
2022-11-29T18:58:11.669Z,6.65
2022-11-29T19:00:40.840Z,8.13
2022-11-29T19:03:09.211Z,7.28
2022-11-29T19:05:38.900Z,6.55
2022-11-29T19:08:07.268Z,7.18
2022-11-29T19:10:38.672Z,7.88
2022-11-29T19:13:09.660Z,7.60
2022-11-29T19:15:38.076Z,6.80
2022-11-29T19:18:06.692Z,7.47
2022-11-29T19:20:35.055Z,6.50
2022-11-29T19:23:07.549Z,7.15
2022-11-29T19:25:36.161Z,6.43
2022-11-29T19:28:09.094Z,9.20
2022-11-29T19:30:41.104Z,7.85
2022-11-29T19:33:09.704Z,7.55
2022-11-29T19:35:38.287Z,6.45
2022-11-29T19:38:08.005Z,7.30
2022-11-29T19:40:36.402Z,7.00
2022-11-29T19:43:04.737Z,6.53
2022-11-29T19:45:33.821Z,7.40
2022-11-29T19:48:02.245Z,7.15
2022-11-29T19:50:30.778Z,6.72
2022-11-29T19:52:59.436Z,7.30
2022-11-29T19:55:29.246Z,8.07
2022-11-29T19:57:57.948Z,8.00
2022-11-29T20:00:26.621Z,6.75
2022-11-29T20:02:55.193Z,7.05
2022-11-29T20:05:23.637Z,7.10
2022-11-29T20:07:52.124Z,6.63
2022-11-29T20:10:20.929Z,8.00
2022-11-29T20:12:51.106Z,9.00
2022-11-29T20:15:20.515Z,8.38
2022-11-29T20:17:49.396Z,7.65
2022-11-29T20:20:18.049Z,8.15
2022-11-29T20:22:46.541Z,10.38
2022-11-29T20:25:14.942Z,7.72
2022-11-29T20:27:43.340Z,11.20
2022-11-29T20:30:15.890Z,12.93
2022-11-29T20:32:44.944Z,8.80
2022-11-29T20:35:15.960Z,8.07
2022-11-29T20:38:15.325Z,7.78
2022-11-29T20:41:02.468Z,6.72
2022-11-29T20:43:45.611Z,7.10
2022-11-29T20:46:16.394Z,5.22
2022-11-29T20:48:45.499Z,6.38
2022-11-29T20:51:15.122Z,7.05
2022-11-29T20:53:46.242Z,7.68
2022-11-29T20:56:14.796Z,7.20
2022-11-29T20:58:43.325Z,7.28
2022-11-29T21:01:12.049Z,6.75
2022-11-29T21:03:42.032Z,6.20
2022-11-29T21:06:10.660Z,6.10
2022-11-29T21:08:39.237Z,6.07
2022-11-29T21:11:11.133Z,5.65
2022-11-29T21:13:40.777Z,5.63
2022-11-29T21:16:12.911Z,6.07
2022-11-29T21:18:44.385Z,6.55
2022-11-29T21:21:25.525Z,8.70
2022-11-29T21:24:02.725Z,5.47
2022-11-29T21:26:41.375Z,4.82
2022-11-29T21:29:17.406Z,4.28
2022-11-29T21:31:48.017Z,4.57
2022-11-29T21:34:17.924Z,4.57
2022-11-29T21:36:49.500Z,4.65
2022-11-29T21:39:18.215Z,5.80
2022-11-29T21:41:46.978Z,5.57
2022-11-29T21:44:15.875Z,5.43
2022-11-29T21:46:45.533Z,4.72
2022-11-29T21:49:14.976Z,4.78
2022-11-29T21:51:44.999Z,4.82
2022-11-29T21:54:18.282Z,5.80
2022-11-29T21:56:46.762Z,5.05
2022-11-29T21:59:18.573Z,4.57
2022-11-29T22:01:47.419Z,5.55
2022-11-29T22:04:18.188Z,4.97
2022-11-29T22:06:48.319Z,4.35
2022-11-29T22:09:17.972Z,4.30
2022-11-29T22:11:46.402Z,4.45
2022-11-29T22:14:18.221Z,4.30
2022-11-29T22:16:49.146Z,4.88
2022-11-29T22:19:21.092Z,5.15
2022-11-29T22:21:52.724Z,4.15
2022-11-29T22:24:23.899Z,4.18
2022-11-29T22:26:54.617Z,4.72
2022-11-29T22:29:23.797Z,4.07
2022-11-29T22:31:54.138Z,4.10
2022-11-29T22:34:25.137Z,4.78
2022-11-29T22:36:55.442Z,3.65
2022-11-29T22:39:25.360Z,3.53
2022-11-29T22:41:55.097Z,3.63
2022-11-29T22:44:24.740Z,3.17
2022-11-29T22:46:53.457Z,3.55
2022-11-29T22:49:22.050Z,3.20
2022-11-29T22:51:50.658Z,3.70
2022-11-29T22:54:20.552Z,3.55
2022-11-29T22:56:49.424Z,4.20
2022-11-29T22:59:17.812Z,4.57
2022-11-29T23:01:46.203Z,3.35
2022-11-29T23:04:14.721Z,5.28
2022-11-29T23:06:45.268Z,3.72
2022-11-29T23:09:16.868Z,3.50
2022-11-29T23:11:50.979Z,2.95
2022-11-29T23:14:23.301Z,3.50
2022-11-29T23:16:51.894Z,2.88
2022-11-29T23:19:20.767Z,2.95
2022-11-29T23:21:49.303Z,3.50
2022-11-29T23:24:18.005Z,3.65
2022-11-29T23:26:48.919Z,2.97
2022-11-29T23:29:20.588Z,3.10
2022-11-29T23:31:50.026Z,3.55
2022-11-29T23:34:20.080Z,3.55
2022-11-29T23:36:54.117Z,3.33
2022-11-29T23:39:22.936Z,3.20
2022-11-29T23:41:53.763Z,3.28
2022-11-29T23:44:23.284Z,3.58
2022-11-29T23:46:51.772Z,3.75
2022-11-29T23:49:20.281Z,3.38
2022-11-29T23:51:48.656Z,3.42
2022-11-29T23:54:16.967Z,3.53
2022-11-29T23:56:46.411Z,3.25
2022-11-29T23:59:18.876Z,3.83
